Time;durP1;ratioP1;P1;durP2;ratioP2;P2;SDS_P1;SDS_P2;PMS_P1;PMS_P2;Temp;Humidity;BMP_temperature;BMP_pressure;BME280_temperature;BME280_humidity;BME280_pressure;Samples;Min_cycle;Max_cycle;Signal;HPM_P1;HPM_P2
2023/11/22 00:01:35;;;;;;;0.20;0.20;;;17.20;73.60;;;;;;4970485;28;20071;-82
2023/11/22 00:04:00;;;;;;;0.17;0.17;;;17.30;73.80;;;;;;4969052;28;20038;-82
2023/11/22 00:06:27;;;;;;;0.15;0.15;;;17.20;73.60;;;;;;4968197;28;20046;-83
2023/11/22 00:08:52;;;;;;;0.30;0.25;;;17.30;74.10;;;;;;4948006;28;20519;-84
2023/11/22 00:11:18;;;;;;;0.10;0.10;;;17.20;73.60;;;;;;4967044;28;20051;-83
2023/11/22 00:13:43;;;;;;;0.30;0.10;;;17.30;73.60;;;;;;4965175;28;20039;-81
2023/11/22 00:16:09;;;;;;;0.35;0.10;;;17.20;73.50;;;;;;4956210;28;20042;-81
2023/11/22 00:18:37;;;;;;;0.10;0.10;;;17.30;73.60;;;;;;4967771;28;20133;-83
2023/11/22 00:21:03;;;;;;;0.28;0.10;;;17.20;73.50;;;;;;4968012;28;20121;-82
2023/11/22 00:23:29;;;;;;;0.40;0.10;;;17.20;73.50;;;;;;4969233;28;20042;-82
2023/11/22 00:25:56;;;;;;;0.10;0.10;;;17.20;73.60;;;;;;4968954;28;20249;-82
2023/11/22 00:28:22;;;;;;;0.08;0.08;;;17.20;73.60;;;;;;4966552;28;20043;-82
2023/11/22 00:30:48;;;;;;;0.10;0.10;;;17.20;73.50;;;;;;4968095;28;20058;-82
2023/11/22 00:33:14;;;;;;;0.32;0.10;;;17.20;73.60;;;;;;4968998;28;20054;-82
2023/11/22 00:35:40;;;;;;;0.15;0.10;;;17.20;73.60;;;;;;4967686;28;20165;-82
2023/11/22 00:38:06;;;;;;;0.10;0.10;;;17.20;73.60;;;;;;4966081;28;20138;-82
2023/11/22 00:40:31;;;;;;;0.10;0.10;;;17.20;73.60;;;;;;4969297;28;20067;-83
2023/11/22 00:42:57;;;;;;;0.10;0.10;;;17.20;73.60;;;;;;4967107;28;20042;-83
2023/11/22 00:45:23;;;;;;;0.10;0.10;;;17.20;73.60;;;;;;4969314;28;20558;-83
2023/11/22 00:47:50;;;;;;;0.20;0.17;;;17.30;73.60;;;;;;4968137;28;20050;-83
2023/11/22 00:50:19;;;;;;;0.17;0.17;;;17.30;73.60;;;;;;4964951;28;20086;-83
2023/11/22 00:52:45;;;;;;;0.20;0.20;;;17.20;73.60;;;;;;4966610;28;20069;-83
2023/11/22 00:55:11;;;;;;;0.20;0.20;;;17.20;73.60;;;;;;4968325;28;20104;-83
2023/11/22 00:57:37;;;;;;;0.32;0.20;;;17.20;73.60;;;;;;4967109;28;20062;-82
2023/11/22 01:00:04;;;;;;;0.17;0.10;;;17.20;73.60;;;;;;4967282;28;20742;-83
2023/11/22 01:02:30;;;;;;;0.10;0.10;;;17.20;73.60;;;;;;4968415;28;20464;-84
2023/11/22 01:04:55;;;;;;;0.47;0.20;;;17.20;73.60;;;;;;4954519;28;20086;-84
2023/11/22 01:07:21;;;;;;;1.50;0.10;;;17.20;73.60;;;;;;4968589;28;20064;-84
2023/11/22 01:09:46;;;;;;;0.20;0.10;;;17.20;73.60;;;;;;4967703;28;20531;-84
2023/11/22 01:12:12;;;;;;;0.20;0.20;;;17.20;73.60;;;;;;4968810;28;20106;-83
2023/11/22 01:14:38;;;;;;;0.85;0.10;;;17.20;73.60;;;;;;4949785;28;20038;-83
2023/11/22 01:17:05;;;;;;;0.20;0.17;;;17.20;74.40;;;;;;4966296;28;20057;-83
2023/11/22 01:19:30;;;;;;;0.00;0.00;;;17.20;73.70;;;;;;4967860;28;20042;-84
2023/11/22 01:21:56;;;;;;;0.30;0.28;;;17.20;73.60;;;;;;4950297;28;20039;-83
2023/11/22 01:24:21;;;;;;;0.00;0.00;;;17.20;73.60;;;;;;4967184;28;20034;-83
2023/11/22 01:26:47;;;;;;;0.20;0.10;;;17.20;73.60;;;;;;4966099;28;20045;-83
2023/11/22 01:29:13;;;;;;;0.20;0.20;;;17.20;74.10;;;;;;4967170;28;20469;-83
2023/11/22 01:31:39;;;;;;;0.20;0.10;;;17.20;73.60;;;;;;4966238;28;20066;-83
2023/11/22 01:34:05;;;;;;;0.00;0.00;;;17.20;73.60;;;;;;4966983;28;20576;-83
2023/11/22 01:36:31;;;;;;;0.10;0.10;;;17.20;73.60;;;;;;4963192;28;20047;-84
2023/11/22 01:38:57;;;;;;;0.10;0.10;;;17.20;73.70;;;;;;4967513;28;20054;-84
2023/11/22 01:41:22;;;;;;;0.10;0.10;;;17.20;73.70;;;;;;4967823;28;20454;-84
2023/11/22 01:43:48;;;;;;;0.25;0.20;;;17.20;73.60;;;;;;4964506;28;20047;-84
2023/11/22 01:46:25;;;;;;;0.10;0.10;;;17.20;73.70;;;;;;4950216;28;20035;-83
2023/11/22 01:48:52;;;;;;;0.10;0.10;;;17.20;73.70;;;;;;4966393;28;20102;-83
2023/11/22 01:51:21;;;;;;;0.13;0.10;;;17.20;73.60;;;;;;4966780;28;20509;-84
2023/11/22 01:53:47;;;;;;;0.40;0.20;;;17.20;73.70;;;;;;4966041;28;20054;-83
2023/11/22 01:56:13;;;;;;;0.13;0.10;;;17.20;73.70;;;;;;4965575;28;20038;-82
2023/11/22 01:58:39;;;;;;;0.25;0.10;;;17.20;73.70;;;;;;4965861;28;20098;-82
2023/11/22 02:01:04;;;;;;;0.28;0.10;;;17.20;73.60;;;;;;4966456;28;20050;-82
2023/11/22 02:03:30;;;;;;;0.10;0.10;;;17.20;73.60;;;;;;4966676;28;20046;-82
2023/11/22 02:05:55;;;;;;;0.10;0.10;;;17.20;73.70;;;;;;4964588;28;20074;-81
2023/11/22 02:08:21;;;;;;;0.20;0.17;;;17.20;74.00;;;;;;4965583;28;20497;-82
2023/11/22 02:10:58;;;;;;;0.40;0.10;;;17.20;73.60;;;;;;4963816;28;20086;-81
2023/11/22 02:13:24;;;;;;;0.10;0.10;;;17.20;73.60;;;;;;4964543;28;20055;-81
2023/11/22 02:15:50;;;;;;;0.90;0.30;;;17.20;74.40;;;;;;4966752;28;20049;-82
2023/11/22 02:18:15;;;;;;;0.52;0.22;;;17.20;73.60;;;;;;4965454;28;20042;-81
2023/11/22 02:20:42;;;;;;;0.45;0.15;;;17.20;73.80;;;;;;4965512;28;20039;-82
2023/11/22 02:23:09;;;;;;;0.47;0.13;;;17.20;73.60;;;;;;4967298;28;20047;-81
2023/11/22 02:25:35;;;;;;;0.10;0.10;;;17.20;73.70;;;;;;4945485;28;20043;-81
2023/11/22 02:28:02;;;;;;;0.30;0.20;;;17.20;73.60;;;;;;4965390;28;20461;-81
2023/11/22 02:30:28;;;;;;;0.15;0.10;;;17.20;73.70;;;;;;4969481;28;20066;-81
2023/11/22 02:32:54;;;;;;;0.13;0.10;;;17.20;73.70;;;;;;4967980;28;20505;-81
2023/11/22 02:35:19;;;;;;;0.68;0.10;;;17.20;73.70;;;;;;4969748;28;20541;-81
2023/11/22 02:37:48;;;;;;;0.30;0.10;;;17.20;73.70;;;;;;4971282;28;20532;-81
2023/11/22 02:40:18;;;;;;;0.50;0.20;;;17.20;73.70;;;;;;4967297;28;20067;-82
2023/11/22 02:42:47;;;;;;;0.10;0.10;;;17.20;73.70;;;;;;4966375;28;20100;-81
2023/11/22 02:45:14;;;;;;;0.10;0.08;;;17.20;73.60;;;;;;4969075;28;20034;-81
2023/11/22 02:47:40;;;;;;;0.50;0.20;;;17.20;73.70;;;;;;4969649;28;20090;-81
2023/11/22 02:50:06;;;;;;;0.20;0.20;;;17.20;73.70;;;;;;4969090;28;20047;-81
2023/11/22 02:52:32;;;;;;;0.10;0.10;;;17.20;73.60;;;;;;4968319;28;20043;-82
2023/11/22 02:54:58;;;;;;;0.10;0.10;;;17.20;73.60;;;;;;4967751;28;20169;-81
2023/11/22 02:57:24;;;;;;;0.15;0.10;;;17.20;73.70;;;;;;4968528;28;20046;-81
2023/11/22 02:59:49;;;;;;;0.20;0.10;;;17.20;73.70;;;;;;4951308;28;20038;-82
2023/11/22 03:02:17;;;;;;;0.08;0.08;;;17.20;73.70;;;;;;4971943;28;20454;-84
2023/11/22 03:04:43;;;;;;;0.30;0.20;;;17.20;73.70;;;;;;4970523;28;20031;-82
2023/11/22 03:07:09;;;;;;;0.20;0.20;;;17.20;73.70;;;;;;4966677;28;20039;-83
2023/11/22 03:09:36;;;;;;;0.20;0.13;;;17.20;73.70;;;;;;4952022;28;20034;-82
2023/11/22 03:12:02;;;;;;;0.30;0.20;;;17.10;73.60;;;;;;4965277;28;20501;-83
2023/11/22 03:14:29;;;;;;;0.20;0.10;;;17.10;73.60;;;;;;4970341;28;20509;-84
2023/11/22 03:16:55;;;;;;;0.15;0.10;;;17.10;73.70;;;;;;4965393;28;20481;-84
2023/11/22 03:19:20;;;;;;;0.63;0.10;;;17.10;73.60;;;;;;4970672;28;20109;-83
2023/11/22 03:21:46;;;;;;;0.22;0.10;;;17.20;73.70;;;;;;4967844;28;20187;-83
2023/11/22 03:24:12;;;;;;;0.55;0.20;;;17.20;73.70;;;;;;4969440;28;20043;-84
2023/11/22 03:26:39;;;;;;;0.30;0.20;;;17.10;73.60;;;;;;4964236;28;20064;-84
2023/11/22 03:29:04;;;;;;;0.30;0.28;;;17.10;73.70;;;;;;4963920;28;20577;-83
2023/11/22 03:31:30;;;;;;;0.17;0.10;;;17.20;73.70;;;;;;4963924;28;20126;-83
2023/11/22 03:33:56;;;;;;;0.35;0.10;;;17.10;73.60;;;;;;4966518;28;21422;-84
2023/11/22 03:36:22;;;;;;;0.15;0.10;;;17.10;73.60;;;;;;4965946;28;20524;-84
2023/11/22 03:38:49;;;;;;;0.20;0.20;;;17.10;73.50;;;;;;4966444;28;20072;-83
2023/11/22 03:41:14;;;;;;;0.30;0.30;;;17.10;74.00;;;;;;4965554;28;20037;-84
2023/11/22 03:43:40;;;;;;;0.15;0.10;;;17.10;73.60;;;;;;4967907;28;20034;-84
2023/11/22 03:46:05;;;;;;;0.22;0.15;;;17.10;73.60;;;;;;4948515;28;20043;-83
2023/11/22 03:48:31;;;;;;;0.10;0.10;;;17.10;73.70;;;;;;4967946;28;20122;-83
2023/11/22 03:50:57;;;;;;;0.32;0.20;;;17.10;73.80;;;;;;4967998;28;20035;-83
2023/11/22 03:53:22;;;;;;;0.10;0.10;;;17.10;73.60;;;;;;4966271;28;20421;-83
2023/11/22 03:55:50;;;;;;;0.20;0.10;;;17.10;73.70;;;;;;4967411;28;20535;-83
2023/11/22 03:58:15;;;;;;;0.10;0.10;;;17.10;74.40;;;;;;4964734;28;20085;-83
2023/11/22 04:00:41;;;;;;;0.55;0.20;;;17.10;73.60;;;;;;4966980;28;20086;-83
2023/11/22 04:03:07;;;;;;;0.20;0.10;;;17.10;74.40;;;;;;4965093;28;20078;-83
2023/11/22 04:05:32;;;;;;;0.10;0.10;;;17.10;73.50;;;;;;4966925;28;20480;-83
2023/11/22 04:07:58;;;;;;;0.13;0.13;;;17.10;73.60;;;;;;4966084;28;20074;-83
2023/11/22 04:10:23;;;;;;;0.22;0.20;;;17.10;73.50;;;;;;4954299;28;20047;-83
2023/11/22 04:12:49;;;;;;;0.20;0.20;;;17.10;73.60;;;;;;4961463;28;20055;-83
2023/11/22 04:15:15;;;;;;;0.40;0.28;;;17.10;73.60;;;;;;4965016;28;20190;-83
2023/11/22 04:17:41;;;;;;;0.22;0.20;;;17.10;73.60;;;;;;4967561;28;20042;-84
2023/11/22 04:20:09;;;;;;;0.55;0.40;;;17.10;73.70;;;;;;4967049;28;20109;-84
2023/11/22 04:22:34;;;;;;;0.10;0.10;;;17.10;73.50;;;;;;4967552;28;20042;-84
2023/11/22 04:25:01;;;;;;;0.15;0.10;;;17.10;74.40;;;;;;4965968;28;20051;-84
2023/11/22 04:27:27;;;;;;;0.20;0.20;;;17.10;73.60;;;;;;4964401;28;20054;-84
2023/11/22 04:29:53;;;;;;;0.10;0.10;;;17.10;73.60;;;;;;4963424;28;20038;-84
2023/11/22 04:32:18;;;;;;;0.20;0.10;;;17.10;73.70;;;;;;4948661;28;20030;-84
2023/11/22 04:34:44;;;;;;;0.10;0.10;;;17.10;73.60;;;;;;4966468;28;20409;-84
2023/11/22 04:37:10;;;;;;;0.35;0.20;;;17.10;73.60;;;;;;4967340;28;20035;-84
2023/11/22 04:39:35;;;;;;;0.20;0.20;;;17.10;73.70;;;;;;4963455;28;20047;-84
2023/11/22 04:42:01;;;;;;;0.30;0.20;;;17.10;73.60;;;;;;4963828;28;20043;-83
2023/11/22 04:44:26;;;;;;;0.50;0.30;;;17.10;73.50;;;;;;4967190;28;20049;-86
2023/11/22 04:46:52;;;;;;;0.40;0.17;;;17.10;73.50;;;;;;4953561;28;20070;-87
2023/11/22 04:49:18;;;;;;;0.73;0.10;;;17.10;73.60;;;;;;4948177;28;20049;-86
2023/11/22 04:51:45;;;;;;;0.20;0.20;;;17.10;73.60;;;;;;4966447;28;20061;-87
2023/11/22 04:54:11;;;;;;;0.40;0.20;;;17.10;73.60;;;;;;4964487;28;20580;-87
2023/11/22 04:56:37;;;;;;;0.20;0.20;;;17.10;73.50;;;;;;4964549;28;20142;-86
2023/11/22 04:59:03;;;;;;;0.45;0.20;;;17.10;73.60;;;;;;4964326;28;20077;-84
2023/11/22 05:01:32;;;;;;;0.10;0.10;;;17.10;73.60;;;;;;4950812;28;20039;-84
2023/11/22 05:03:58;;;;;;;0.10;0.10;;;17.10;73.60;;;;;;4965102;28;20074;-82
2023/11/22 05:06:26;;;;;;;0.68;0.20;;;17.10;73.50;;;;;;4966400;28;20187;-82
2023/11/22 05:08:52;;;;;;;0.20;0.20;;;17.10;73.60;;;;;;4947595;28;20038;-82
2023/11/22 05:11:17;;;;;;;0.28;0.10;;;17.10;74.30;;;;;;4964723;28;20054;-81
2023/11/22 05:13:43;;;;;;;0.40;0.20;;;17.10;73.50;;;;;;4967459;28;20084;-81
2023/11/22 05:16:09;;;;;;;0.32;0.10;;;17.10;73.60;;;;;;4967528;28;20035;-82
2023/11/22 05:18:35;;;;;;;0.10;0.10;;;17.10;73.70;;;;;;4961770;28;20038;-82
2023/11/22 05:21:04;;;;;;;0.10;0.10;;;17.10;73.60;;;;;;4979440;28;20038;-82
2023/11/22 05:23:32;;;;;;;0.30;0.20;;;17.10;73.60;;;;;;4960306;28;20039;-82
2023/11/22 05:25:59;;;;;;;0.13;0.13;;;17.10;73.50;;;;;;4965944;28;20051;-83
2023/11/22 05:28:25;;;;;;;0.10;0.10;;;17.00;73.40;;;;;;4965045;28;20059;-83
2023/11/22 05:30:50;;;;;;;0.20;0.20;;;17.10;73.50;;;;;;4962591;28;20074;-83
2023/11/22 05:33:16;;;;;;;0.28;0.20;;;17.10;73.50;;;;;;4965773;28;20027;-81
2023/11/22 05:35:42;;;;;;;0.22;0.22;;;17.00;73.50;;;;;;4966390;28;20039;-81
2023/11/22 05:38:08;;;;;;;0.30;0.20;;;17.10;73.60;;;;;;4961549;28;20034;-82
2023/11/22 05:40:34;;;;;;;0.20;0.20;;;17.10;73.60;;;;;;4966856;28;20038;-83
2023/11/22 05:42:59;;;;;;;0.30;0.25;;;17.10;73.50;;;;;;4966140;28;20049;-85
2023/11/22 05:45:25;;;;;;;0.10;0.10;;;17.10;73.50;;;;;;4964299;28;20444;-85
2023/11/22 05:47:51;;;;;;;0.20;0.20;;;17.10;73.40;;;;;;4967682;28;20472;-84
2023/11/22 05:50:17;;;;;;;0.25;0.22;;;17.10;73.50;;;;;;4963070;28;20559;-83
2023/11/22 05:52:44;;;;;;;0.20;0.20;;;17.10;74.20;;;;;;4964091;28;20517;-84
2023/11/22 05:55:09;;;;;;;0.15;0.15;;;17.10;73.50;;;;;;4965284;28;20471;-84
2023/11/22 05:57:35;;;;;;;0.10;0.10;;;17.00;73.60;;;;;;4963817;28;20130;-84
2023/11/22 06:00:01;;;;;;;0.40;0.20;;;17.10;73.50;;;;;;4965425;28;20059;-84
2023/11/22 06:02:26;;;;;;;0.20;0.20;;;17.10;73.60;;;;;;4963486;28;20031;-83
2023/11/22 06:04:52;;;;;;;0.17;0.03;;;17.10;73.50;;;;;;4964741;28;20559;-82
2023/11/22 06:07:18;;;;;;;0.15;0.10;;;17.00;73.40;;;;;;4964827;28;20432;-82
2023/11/22 06:09:44;;;;;;;0.20;0.20;;;17.10;73.60;;;;;;4964875;28;20034;-83
2023/11/22 06:12:10;;;;;;;0.10;0.10;;;17.00;73.30;;;;;;4967862;28;20051;-84
2023/11/22 06:14:38;;;;;;;0.20;0.20;;;17.00;74.10;;;;;;4965681;28;20033;-89
2023/11/22 06:17:04;;;;;;;0.13;0.10;;;17.00;73.30;;;;;;4966369;28;20485;-85
2023/11/22 06:19:30;;;;;;;0.93;0.30;;;17.00;73.30;;;;;;4617507;28;10000479;-86
2023/11/22 06:21:56;;;;;;;0.20;0.20;;;17.00;73.30;;;;;;4962185;28;20051;-86
2023/11/22 06:24:22;;;;;;;0.10;0.10;;;17.00;73.30;;;;;;4964690;28;20033;-87
2023/11/22 06:26:47;;;;;;;0.20;0.20;;;17.10;73.30;;;;;;4946311;28;20059;-84
2023/11/22 06:29:14;;;;;;;0.20;0.20;;;17.10;73.80;;;;;;4962586;28;20082;-83
2023/11/22 06:31:40;;;;;;;0.20;0.20;;;17.10;73.80;;;;;;4966961;28;20070;-85
2023/11/22 06:34:05;;;;;;;0.95;0.43;;;17.10;74.00;;;;;;4966688;28;20090;-86
2023/11/22 06:36:31;;;;;;;0.40;0.40;;;17.10;74.50;;;;;;4966095;28;20101;-85
2023/11/22 06:38:57;;;;;;;0.40;0.30;;;17.10;75.00;;;;;;4950023;28;20047;-83
2023/11/22 06:41:22;;;;;;;0.13;0.10;;;17.10;74.90;;;;;;4961671;28;20040;-84
2023/11/22 06:43:48;;;;;;;0.60;0.20;;;17.10;75.30;;;;;;4962113;28;20602;-85
2023/11/22 06:46:16;;;;;;;0.38;0.20;;;17.10;75.40;;;;;;4964555;28;20050;-84
2023/11/22 06:48:43;;;;;;;0.32;0.20;;;17.10;76.00;;;;;;4965099;28;20110;-85
2023/11/22 06:51:09;;;;;;;2.60;0.40;;;17.10;76.20;;;;;;4963114;28;20133;-84
2023/11/22 06:53:35;;;;;;;0.45;0.30;;;17.10;76.50;;;;;;4962458;28;20141;-85
2023/11/22 06:56:01;;;;;;;0.30;0.28;;;17.10;76.80;;;;;;4962304;28;20126;-84
2023/11/22 06:58:27;;;;;;;0.35;0.20;;;17.10;76.90;;;;;;4957944;28;20113;-84
2023/11/22 07:00:52;;;;;;;0.20;0.17;;;17.10;77.00;;;;;;4963948;28;20425;-84
2023/11/22 07:03:18;;;;;;;0.30;0.10;;;17.10;76.70;;;;;;4946692;28;20046;-84
2023/11/22 07:05:44;;;;;;;0.17;0.17;;;17.10;77.00;;;;;;4961488;28;20069;-84
2023/11/22 07:08:10;;;;;;;0.52;0.30;;;17.10;77.30;;;;;;4982172;28;20046;-84
2023/11/22 07:10:36;;;;;;;0.25;0.25;;;17.10;76.90;;;;;;4956120;28;20054;-84
2023/11/22 07:13:02;;;;;;;0.38;0.25;;;17.10;76.80;;;;;;4964444;28;20047;-83
2023/11/22 07:15:28;;;;;;;0.30;0.20;;;17.10;77.10;;;;;;4963097;28;20047;-84
2023/11/22 07:17:54;;;;;;;0.30;0.30;;;17.10;76.60;;;;;;4965217;28;20505;-85
2023/11/22 07:20:20;;;;;;;1.17;0.50;;;17.10;76.20;;;;;;4963600;28;20565;-84
2023/11/22 07:22:46;;;;;;;0.45;0.30;;;17.10;75.90;;;;;;4960910;28;20110;-84
2023/11/22 07:25:20;;;;;;;0.30;0.30;;;17.10;76.70;;;;;;4965071;28;20100;-84
2023/11/22 07:27:46;;;;;;;0.40;0.40;;;17.10;76.30;;;;;;4949753;28;20035;-85
2023/11/22 07:30:13;;;;;;;0.25;0.25;;;17.10;76.20;;;;;;4963687;28;20043;-83
2023/11/22 07:32:39;;;;;;;0.32;0.32;;;17.10;75.90;;;;;;4963408;28;20050;-84
2023/11/22 07:35:08;;;;;;;0.32;0.28;;;17.10;76.20;;;;;;4963180;28;20065;-85
2023/11/22 07:37:35;;;;;;;0.30;0.20;;;17.20;76.50;;;;;;4959711;28;20055;-85
2023/11/22 07:40:03;;;;;;;0.30;0.20;;;17.10;76.20;;;;;;4963207;28;20047;-84
2023/11/22 07:42:29;;;;;;;1.85;0.35;;;17.10;77.00;;;;;;4965091;28;20051;-85
2023/11/22 07:44:56;;;;;;;2.50;0.30;;;17.10;76.50;;;;;;4965009;28;20097;-84
2023/11/22 07:47:22;;;;;;;0.13;0.13;;;17.10;76.50;;;;;;4977234;28;20046;-84
2023/11/22 07:49:48;;;;;;;0.52;0.40;;;17.10;76.20;;;;;;4962224;28;20055;-83
2023/11/22 07:52:14;;;;;;;1.52;0.40;;;17.10;76.00;;;;;;4965583;28;20066;-82
2023/11/22 07:54:40;;;;;;;0.20;0.20;;;17.10;76.00;;;;;;4967353;28;20023;-82
2023/11/22 07:57:07;;;;;;;0.17;0.10;;;17.10;76.20;;;;;;4968839;28;20051;-82
2023/11/22 07:59:32;;;;;;;0.17;0.17;;;17.10;76.40;;;;;;4965657;28;20031;-82
2023/11/22 08:02:01;;;;;;;1.50;0.20;;;17.10;77.30;;;;;;4948500;28;20137;-83
2023/11/22 08:04:28;;;;;;;0.10;0.10;;;17.10;76.50;;;;;;4966232;28;20444;-82
2023/11/22 08:06:56;;;;;;;0.40;0.40;;;17.10;76.40;;;;;;4966279;28;20063;-82
2023/11/22 08:09:22;;;;;;;1.38;0.50;;;17.10;76.40;;;;;;4966337;28;20027;-82
2023/11/22 08:11:48;;;;;;;0.20;0.20;;;17.10;77.10;;;;;;4962051;28;20514;-82
2023/11/22 08:14:15;;;;;;;0.30;0.30;;;17.10;76.70;;;;;;4966309;28;20501;-83
2023/11/22 08:16:42;;;;;;;0.20;0.20;;;17.10;76.60;;;;;;4966918;28;20054;-83
2023/11/22 08:19:08;;;;;;;0.20;0.10;;;17.10;76.80;;;;;;4969212;28;20138;-82
2023/11/22 08:21:34;;;;;;;0.43;0.20;;;17.10;76.80;;;;;;4966812;28;20505;-82
2023/11/22 08:24:00;;;;;;;0.35;0.30;;;17.10;76.80;;;;;;4967285;28;20051;-82
2023/11/22 08:26:25;;;;;;;0.38;0.20;;;17.10;76.50;;;;;;4979718;28;20078;-82
2023/11/22 08:28:51;;;;;;;0.13;0.10;;;17.10;76.80;;;;;;4968120;28;20057;-82
2023/11/22 08:31:16;;;;;;;0.28;0.22;;;17.10;76.80;;;;;;4968337;28;20520;-81
2023/11/22 08:33:42;;;;;;;0.20;0.10;;;17.10;77.00;;;;;;4967102;28;20418;-82
2023/11/22 08:36:08;;;;;;;0.50;0.10;;;17.10;76.90;;;;;;4969274;28;20031;-82
2023/11/22 08:38:40;;;;;;;0.20;0.20;;;17.10;77.00;;;;;;4967784;28;20436;-82
2023/11/22 08:41:06;;;;;;;0.25;0.20;;;17.10;77.30;;;;;;4967730;28;20069;-82
2023/11/22 08:43:32;;;;;;;0.43;0.10;;;17.10;77.10;;;;;;4969005;28;20548;-82
2023/11/22 08:45:58;;;;;;;0.17;0.17;;;17.10;77.10;;;;;;4967974;28;20517;-82
2023/11/22 08:48:24;;;;;;;0.25;0.20;;;17.10;77.20;;;;;;4967207;28;20047;-82
2023/11/22 08:50:50;;;;;;;0.20;0.20;;;17.10;77.20;;;;;;4965832;28;20051;-82
2023/11/22 08:53:16;;;;;;;0.50;0.32;;;17.10;77.30;;;;;;4965233;28;20050;-83
2023/11/22 08:55:43;;;;;;;0.20;0.20;;;17.10;77.30;;;;;;4968555;28;20085;-82
2023/11/22 08:58:10;;;;;;;0.17;0.15;;;17.10;77.50;;;;;;4969207;28;20425;-82
2023/11/22 09:00:36;;;;;;;0.30;0.20;;;17.10;77.80;;;;;;4964668;28;20065;-82
2023/11/22 09:03:03;;;;;;;0.30;0.30;;;17.10;77.60;;;;;;4966559;28;20050;-82
2023/11/22 09:05:28;;;;;;;0.50;0.30;;;17.10;77.70;;;;;;4966494;28;20034;-82
2023/11/22 09:07:55;;;;;;;0.20;0.20;;;17.10;77.60;;;;;;4967235;28;20535;-82
2023/11/22 09:10:21;;;;;;;0.35;0.20;;;17.10;78.50;;;;;;4966901;28;20038;-82
2023/11/22 09:12:47;;;;;;;0.10;0.10;;;17.10;77.90;;;;;;4968467;28;20043;-82
2023/11/22 09:15:15;;;;;;;0.22;0.22;;;17.10;78.00;;;;;;4966111;28;20035;-82
2023/11/22 09:17:45;;;;;;;0.75;0.22;;;17.10;78.20;;;;;;4965115;28;20039;-82
2023/11/22 09:20:12;;;;;;;0.40;0.30;;;17.10;77.90;;;;;;4965184;28;20477;-82
2023/11/22 09:22:47;;;;;;;0.20;0.20;;;17.10;77.70;;;;;;4965804;28;20424;-82
2023/11/22 09:25:16;;;;;;;0.20;0.20;;;17.10;77.60;;;;;;4967532;28;20708;-82
2023/11/22 09:27:42;;;;;;;0.30;0.20;;;17.10;77.40;;;;;;4967298;28;20042;-82
2023/11/22 09:30:17;;;;;;;0.10;0.10;;;17.10;77.10;;;;;;4966722;28;20402;-82
2023/11/22 09:32:44;;;;;;;0.10;0.10;;;17.20;76.70;;;;;;4964262;28;20047;-82
2023/11/22 09:35:10;;;;;;;0.35;0.20;;;17.20;75.80;;;;;;4962453;28;20117;-82
2023/11/22 09:37:37;;;;;;;0.17;0.17;;;17.20;76.10;;;;;;4970448;28;20501;-82
2023/11/22 09:40:08;;;;;;;0.20;0.20;;;17.20;76.30;;;;;;4971048;28;20416;-82
2023/11/22 09:42:34;;;;;;;0.40;0.30;;;17.20;76.80;;;;;;4966420;28;20634;-82
2023/11/22 09:44:59;;;;;;;0.30;0.10;;;17.20;76.80;;;;;;4970341;28;20101;-82
2023/11/22 09:47:26;;;;;;;0.45;0.30;;;17.20;76.20;;;;;;4969419;28;20047;-82
2023/11/22 09:49:51;;;;;;;0.10;0.10;;;17.20;76.50;;;;;;4970316;28;20491;-82
2023/11/22 09:52:17;;;;;;;0.20;0.20;;;17.20;76.50;;;;;;4969710;28;20134;-82
2023/11/22 09:54:43;;;;;;;0.20;0.20;;;17.20;75.90;;;;;;4967577;28;20106;-82
2023/11/22 09:57:10;;;;;;;0.30;0.20;;;17.20;75.90;;;;;;4969215;28;20134;-82
2023/11/22 09:59:36;;;;;;;0.57;0.10;;;17.20;76.20;;;;;;4967621;28;20093;-82
2023/11/22 10:02:03;;;;;;;0.40;0.20;;;17.20;76.00;;;;;;4970405;28;20055;-82
2023/11/22 10:04:31;;;;;;;0.20;0.17;;;17.20;75.80;;;;;;4970111;28;20085;-82
2023/11/22 10:06:58;;;;;;;0.43;0.30;;;17.20;76.00;;;;;;4969647;28;20154;-82
2023/11/22 10:09:24;;;;;;;0.30;0.20;;;17.20;75.80;;;;;;4968158;28;20076;-82
2023/11/22 10:11:50;;;;;;;0.35;0.10;;;17.20;75.90;;;;;;4968295;28;20398;-82
2023/11/22 10:14:25;;;;;;;0.30;0.10;;;17.20;75.80;;;;;;4971609;28;20050;-82
2023/11/22 10:17:00;;;;;;;0.20;0.10;;;17.20;75.90;;;;;;4970231;28;20039;-83
2023/11/22 10:19:27;;;;;;;0.20;0.20;;;17.20;75.80;;;;;;4971240;28;20039;-82
2023/11/22 10:22:04;;;;;;;0.15;0.15;;;17.20;75.70;;;;;;4968598;28;20034;-82
2023/11/22 10:24:33;;;;;;;0.20;0.15;;;17.20;75.70;;;;;;4967691;28;20043;-82
2023/11/22 10:26:59;;;;;;;0.28;0.13;;;17.20;75.90;;;;;;4967425;28;20390;-82
2023/11/22 10:29:27;;;;;;;0.30;0.20;;;17.20;76.00;;;;;;4969895;28;20097;-81
2023/11/22 10:31:53;;;;;;;0.10;0.10;;;17.20;76.00;;;;;;4970018;28;20027;-82
2023/11/22 10:34:20;;;;;;;1.40;0.20;;;17.20;76.30;;;;;;4969620;28;20097;-82
2023/11/22 10:36:47;;;;;;;0.20;0.10;;;17.20;76.50;;;;;;4968710;28;20051;-82
2023/11/22 10:39:16;;;;;;;0.50;0.20;;;17.20;76.30;;;;;;4970406;28;20490;-82
2023/11/22 10:41:42;;;;;;;0.38;0.30;;;17.20;76.00;;;;;;4968910;28;20039;-82
2023/11/22 10:44:07;;;;;;;0.10;0.10;;;17.20;76.50;;;;;;4968865;28;20051;-82
2023/11/22 10:46:33;;;;;;;0.17;0.10;;;17.20;76.10;;;;;;4967727;28;20066;-82
2023/11/22 10:48:59;;;;;;;0.52;0.30;;;17.20;76.20;;;;;;4968476;28;20035;-82
2023/11/22 10:51:25;;;;;;;0.20;0.10;;;17.20;75.70;;;;;;4967535;28;20039;-81
2023/11/22 10:53:51;;;;;;;0.28;0.28;;;17.20;75.80;;;;;;4968597;28;20045;-82
2023/11/22 10:56:19;;;;;;;0.20;0.20;;;17.20;75.50;;;;;;4970548;28;20030;-82
2023/11/22 10:58:49;;;;;;;0.03;0.03;;;17.30;75.30;;;;;;4968131;28;20098;-82
2023/11/22 11:01:25;;;;;;;0.35;0.30;;;17.30;76.30;;;;;;4970300;28;20122;-82
2023/11/22 11:04:00;;;;;;;0.30;0.28;;;17.30;75.50;;;;;;4967863;28;20046;-82
2023/11/22 11:06:33;;;;;;;0.25;0.20;;;17.30;74.90;;;;;;4965741;28;20043;-82
2023/11/22 11:09:05;;;;;;;0.20;0.15;;;17.40;74.80;;;;;;4969147;28;20126;-82
2023/11/22 11:11:32;;;;;;;0.20;0.20;;;17.40;74.80;;;;;;4967889;28;20038;-81
2023/11/22 11:13:58;;;;;;;0.28;0.28;;;17.40;74.80;;;;;;4971040;28;20615;-82
2023/11/22 11:16:23;;;;;;;0.13;0.10;;;17.40;74.80;;;;;;4969455;28;20046;-82
2023/11/22 11:18:49;;;;;;;0.32;0.20;;;17.40;74.60;;;;;;4966711;28;20053;-81
2023/11/22 11:21:14;;;;;;;0.85;0.20;;;17.40;74.60;;;;;;4617679;28;9999869;-83
2023/11/22 11:23:44;;;;;;;0.35;0.20;;;17.40;74.90;;;;;;4949321;28;20432;-82
2023/11/22 11:26:21;;;;;;;0.20;0.20;;;17.40;75.10;;;;;;4965810;28;20057;-83
2023/11/22 11:28:47;;;;;;;6.38;1.00;;;17.40;75.20;;;;;;4962275;28;20054;-84
2023/11/22 11:31:14;;;;;;;3.60;0.45;;;17.40;76.60;;;;;;4965725;28;20093;-84
2023/11/22 11:33:49;;;;;;;2.10;0.50;;;17.40;75.90;;;;;;4963070;28;20578;-85
2023/11/22 11:36:27;;;;;;;1.17;0.35;;;17.50;76.20;;;;;;4965991;28;20037;-86
2023/11/22 11:38:54;;;;;;;0.82;0.40;;;17.40;76.10;;;;;;4966193;28;20176;-85
2023/11/22 11:41:23;;;;;;;0.40;0.20;;;17.40;76.10;;;;;;4960094;28;20070;-85
2023/11/22 11:43:49;;;;;;;2.88;0.32;;;17.40;76.60;;;;;;4962051;28;20046;-87
2023/11/22 11:46:15;;;;;;;0.63;0.30;;;17.50;76.90;;;;;;4962865;28;20055;-88
2023/11/22 11:48:44;;;;;;;0.77;0.30;;;17.50;76.50;;;;;;4961960;28;20051;-87
2023/11/22 11:51:13;;;;;;;1.20;0.22;;;17.50;76.10;;;;;;4977775;28;20077;-88
2023/11/22 11:53:39;;;;;;;0.40;0.17;;;17.50;75.60;;;;;;4959565;28;20058;-87
2023/11/22 11:56:05;;;;;;;0.17;0.17;;;17.50;75.50;;;;;;4964277;28;20074;-86
2023/11/22 11:58:30;;;;;;;0.20;0.20;;;17.50;75.50;;;;;;4964253;28;20126;-86
2023/11/22 12:00:56;;;;;;;0.30;0.20;;;17.50;75.50;;;;;;4964081;28;20125;-86
2023/11/22 12:03:22;;;;;;;0.20;0.20;;;17.50;75.50;;;;;;4965482;28;20047;-88
2023/11/22 12:05:51;;;;;;;0.85;0.28;;;17.50;75.80;;;;;;4965387;28;20069;-88
2023/11/22 12:08:17;;;;;;;0.43;0.20;;;17.50;75.80;;;;;;4961539;28;20042;-87
2023/11/22 12:10:49;;;;;;;0.17;0.17;;;17.50;75.50;;;;;;4964780;28;20054;-88
2023/11/22 12:13:21;;;;;;;0.20;0.20;;;17.50;75.50;;;;;;4966440;28;20043;-78
2023/11/22 12:15:47;;;;;;;0.47;0.30;;;17.50;75.60;;;;;;4959500;28;20057;-79
2023/11/22 12:18:12;;;;;;;0.32;0.28;;;17.50;75.20;;;;;;4962791;28;20043;-78
2023/11/22 12:20:39;;;;;;;0.30;0.20;;;17.60;75.20;;;;;;4959895;28;20054;-79
2023/11/22 12:23:04;;;;;;;0.40;0.20;;;17.60;75.00;;;;;;4962087;28;20057;-78
2023/11/22 12:25:30;;;;;;;0.30;0.10;;;17.60;75.00;;;;;;4965051;28;20050;-79
2023/11/22 12:27:56;;;;;;;0.43;0.30;;;17.60;74.90;;;;;;4961640;28;20511;-78
2023/11/22 12:30:35;;;;;;;0.55;0.45;;;17.60;74.70;;;;;;4963975;28;20527;-78
2023/11/22 12:33:07;;;;;;;0.30;0.30;;;17.60;74.70;;;;;;4943047;28;20129;-78
2023/11/22 12:35:33;;;;;;;0.30;0.20;;;17.60;74.70;;;;;;4960303;28;20042;-78
2023/11/22 12:38:05;;;;;;;0.10;0.10;;;17.60;75.00;;;;;;4964073;28;20054;-78
2023/11/22 12:40:31;;;;;;;0.82;0.28;;;17.60;75.00;;;;;;4963243;28;20491;-80
2023/11/22 12:42:57;;;;;;;0.30;0.20;;;17.60;74.90;;;;;;4961699;28;20046;-79